Terminal Aerodrome Forecast
Issued by NWS Boise, ID

Home | Current Version | Previous Version | Text Only | Print | Product List | Glossary On
Versions: 1 2 3 4 5 6 7 8 9 10 11 12 13 14 15 16 17 18 19 20 21 22 23 24 25 26 27 28 29 30 31 32 33 34 35 36 37 38
000
FTUS45 KBOI 220159 AAA
TAFBNO
TAF AMD
KBNO 220159Z 2202/2224 VRB06KT P6SM VCSH SCT020 BKN040 OVC070
      TEMPO 2202/2204 -SHRASN OVC025
     FM220600 19007KT P6SM OVC100
     FM222000 23005KT P6SM VCSH OVC050=

USA.gov is the U.S. government's official web portal to all federal, state and local government web resources and services.